Terminal Aerodrome Forecast
Issued by NWS

Home | Current Version | Previous Version | Text Only | Print | Product List | Glossary On
Versions: 1 2 3 4 5 6 7 8 9 10 11 12 13 14
083
FTUS42 KTAE 301728
TAFVLD
TAF
KVLD 301728Z 3018/3118 20008KT P6SM SCT040
     FM310000 18005KT P6SM BKN100
     FM310700 21005KT 3SM TSRA BKN025CB
     FM311500 25008KT P6SM SCT040=

USA.gov is the U.S. government's official web portal to all federal, state and local government web resources and services.